Terminal Aerodrome Forecast
Issued by NWS

Home | Current Version | Previous Version | Text Only | Print | Product List | Glossary On
Versions: 1 2 3 4 5 6 7 8 9 10 11 12 13 14 15 16 17 18
000
FTUS44 KTSA 241120
TAFFYV
TAF
KFYV 241120Z 2412/2512 00000KT 5SM BR SKC
     FM241400 VRB03KT P6SM SKC
     FM241600 17007KT P6SM SCT040
     FM250100 VRB03KT P6SM FEW050 SCT250=

USA.gov is the U.S. government's official web portal to all federal, state and local government web resources and services.